Garfield Heights, Ohio
Current Conditions -  °F | °C
As of 1:53 PM on Monday 22 Dec 2014 (Local Time) from KBKL Reporting Station
Scattered Clouds Scattered Clouds  
Wind Chill: 39°   Ceiling: Unl
Heat Index: 43°   Visibility: 10mi
Dew Point: 30°   Wind: 7mph
Humidity: 60%   Direction: 120°ESE
Pressure: 29.98"   Gusts: NA
Location:  41.42°N, 81.6°W
Report Text: KBKL 221853Z 12006KT 10SM SCT048 06/M01 A2998 RMK AO2 SLP156 T00611011
Loading
Personal Weather Stations






























Interactive Weather Map New forecast layout! Learn more

10-Day Weather Forecast

Advertisements
Track Severe Weather on mobile